createdAt,value
2017-07-24T00:01:30.927Z,66.87
2017-07-24T00:03:59.026Z,65.20
2017-07-24T00:06:27.273Z,64.80
2017-07-24T00:08:55.779Z,65.53
2017-07-24T00:11:23.934Z,69.00
2017-07-24T00:13:52.406Z,68.80
2017-07-24T00:16:20.550Z,65.80
2017-07-24T00:18:48.650Z,67.87
2017-07-24T00:21:17.498Z,68.17
2017-07-24T00:23:46.378Z,67.70
2017-07-24T00:26:14.535Z,65.07
2017-07-24T00:28:42.757Z,65.53
2017-07-24T00:31:11.445Z,65.63
2017-07-24T00:33:39.569Z,66.73
2017-07-24T00:36:08.226Z,68.03
2017-07-24T00:38:36.729Z,65.50
2017-07-24T00:41:05.358Z,66.63
2017-07-24T00:43:33.614Z,68.20
2017-07-24T00:46:02.238Z,67.10
2017-07-24T00:48:30.325Z,66.30
2017-07-24T00:50:59.834Z,64.63
2017-07-24T00:53:29.065Z,66.60
2017-07-24T01:08:46.573Z,67.77
2017-07-24T01:11:15.074Z,66.60
2017-07-24T01:13:43.714Z,64.83
2017-07-24T01:16:13.194Z,62.27
2017-07-24T01:18:41.702Z,65.70
2017-07-24T01:21:09.844Z,69.50
2017-07-24T01:23:38.563Z,70.07
2017-07-24T01:26:06.690Z,64.83
2017-07-24T01:28:34.814Z,62.80
2017-07-24T01:31:04.350Z,62.10
2017-07-24T01:33:33.142Z,65.83
2017-07-24T01:36:01.870Z,65.33
2017-07-24T01:38:30.089Z,66.87
2017-07-24T01:40:58.191Z,63.20
2017-07-24T01:43:26.322Z,65.23
2017-07-24T01:45:54.635Z,63.83
2017-07-24T01:48:29.578Z,68.20
2017-07-24T01:50:57.701Z,64.17
2017-07-24T01:53:25.814Z,65.47
2017-07-24T01:55:53.970Z,63.87
2017-07-24T01:58:22.270Z,65.00
2017-07-24T02:00:50.403Z,70.67
2017-07-24T02:03:19.821Z,77.80
2017-07-24T02:05:48.139Z,66.43
2017-07-24T02:08:16.714Z,70.03
2017-07-24T02:10:45.454Z,63.17
2017-07-24T02:13:14.265Z,62.20
2017-07-24T02:15:42.359Z,63.27
2017-07-24T02:18:10.461Z,64.13
2017-07-24T02:20:38.702Z,64.10
2017-07-24T02:23:06.806Z,64.70
2017-07-24T02:25:34.906Z,65.30
2017-07-24T02:28:03.129Z,63.33
2017-07-24T02:30:31.242Z,63.13
2017-07-24T02:32:59.374Z,69.10
2017-07-24T02:35:27.781Z,62.83
2017-07-24T02:37:55.898Z,63.50
2017-07-24T02:40:24.010Z,62.40
2017-07-24T02:42:52.237Z,70.43
2017-07-24T02:45:20.332Z,65.40
2017-07-24T02:47:48.478Z,69.40
2017-07-24T02:50:17.097Z,71.37
2017-07-24T02:52:46.525Z,63.63
2017-07-24T02:55:15.013Z,71.50
2017-07-24T02:57:43.757Z,65.63
2017-07-24T03:00:12.426Z,68.07
2017-07-24T03:02:41.191Z,62.83
2017-07-24T03:05:09.798Z,77.47
2017-07-24T03:07:38.401Z,69.70
2017-07-24T03:10:07.074Z,61.60
2017-07-24T03:12:35.697Z,74.07
2017-07-24T03:15:04.306Z,71.77
2017-07-24T03:17:32.826Z,74.17
2017-07-24T03:20:01.449Z,64.37
2017-07-24T03:22:30.980Z,67.77
2017-07-24T03:24:59.515Z,72.60
2017-07-24T03:27:27.742Z,59.90
2017-07-24T03:29:56.346Z,60.00
2017-07-24T03:32:24.801Z,69.60
2017-07-24T03:34:53.062Z,66.57
2017-07-24T03:37:22.658Z,68.60
2017-07-24T03:39:51.896Z,57.33
2017-07-24T03:42:20.695Z,60.57
2017-07-24T03:44:49.351Z,63.90
2017-07-24T03:47:18.099Z,72.30
2017-07-24T03:49:46.622Z,71.20
2017-07-24T03:52:15.182Z,65.87
2017-07-24T03:54:43.858Z,70.03
2017-07-24T03:57:12.479Z,76.40
2017-07-24T03:59:40.886Z,52.83
2017-07-24T04:02:09.360Z,71.37
2017-07-24T04:04:39.030Z,79.97
2017-07-24T04:07:08.275Z,72.93
2017-07-24T04:09:36.353Z,71.30
2017-07-24T04:12:04.546Z,61.13
2017-07-24T04:14:32.608Z,67.13
2017-07-24T04:17:00.678Z,81.50
2017-07-24T04:19:28.902Z,68.60
2017-07-24T04:21:57.005Z,68.67
2017-07-24T04:24:25.108Z,66.77
2017-07-24T04:26:53.326Z,88.53
2017-07-24T04:29:21.423Z,57.70
2017-07-24T04:31:49.511Z,71.13
2017-07-24T04:34:17.734Z,96.70
2017-07-24T04:36:45.794Z,70.27
2017-07-24T04:39:14.610Z,69.43
2017-07-24T04:41:43.483Z,76.10
2017-07-24T04:44:11.993Z,87.17
2017-07-24T04:46:41.529Z,75.63
2017-07-24T04:49:09.746Z,84.13
2017-07-24T04:51:37.862Z,68.60
2017-07-24T04:54:06.322Z,79.73
2017-07-24T04:56:34.574Z,79.87
2017-07-24T04:59:02.654Z,63.87
2017-07-24T05:01:30.761Z,84.80
2017-07-24T05:03:58.985Z,86.60
2017-07-24T05:06:27.059Z,93.10
2017-07-24T05:08:55.130Z,84.55
2017-07-24T05:11:23.371Z,73.32
2017-07-24T05:13:51.486Z,80.35
2017-07-24T05:16:19.591Z,80.90
2017-07-24T05:18:47.794Z,83.30
2017-07-24T05:21:15.925Z,78.00
2017-07-24T05:23:44.054Z,81.18
2017-07-24T05:26:12.854Z,99.22
2017-07-24T05:28:41.598Z,100.85
2017-07-24T05:31:10.161Z,90.25
2017-07-24T05:33:38.393Z,79.50
2017-07-24T05:36:06.860Z,100.97
2017-07-24T05:38:35.380Z,90.25
2017-07-24T05:41:04.135Z,81.07
2017-07-24T09:47:12.034Z,73.05
2017-07-24T09:49:40.128Z,82.28
2017-07-24T09:52:08.117Z,67.23
2017-07-24T09:54:36.305Z,70.00
2017-07-24T09:57:04.375Z,73.33
2017-07-24T09:59:32.366Z,72.70
2017-07-24T10:02:00.533Z,68.37
2017-07-24T10:04:50.087Z,80.37
2017-07-24T10:21:42.650Z,63.42
2017-07-24T10:24:11.236Z,67.82
2017-07-24T10:26:39.374Z,77.32
2017-07-24T10:29:07.616Z,71.53
2017-07-24T10:31:35.706Z,82.57
2017-07-24T10:34:03.772Z,76.20
2017-07-24T10:36:32.056Z,84.53
2017-07-24T10:39:00.126Z,74.87
2017-07-24T10:41:28.178Z,92.30
2017-07-24T10:43:56.352Z,68.07
2017-07-24T10:46:24.387Z,91.43
2017-07-24T10:48:53.455Z,62.50
2017-07-24T10:51:21.654Z,62.97
2017-07-24T10:53:49.714Z,90.13
2017-07-24T10:56:17.770Z,86.23
2017-07-24T10:58:45.965Z,60.83
2017-07-24T11:01:13.997Z,90.00
2017-07-24T11:03:42.043Z,75.18
2017-07-24T11:06:10.210Z,76.85
2017-07-24T11:08:38.202Z,80.50
2017-07-24T11:11:06.239Z,78.23
2017-07-24T11:13:34.531Z,71.23
2017-07-24T11:16:02.568Z,80.70
2017-07-24T11:18:30.593Z,90.63
2017-07-24T11:20:58.737Z,84.67
2017-07-24T11:23:26.816Z,83.60
2017-07-24T11:25:54.841Z,73.53
2017-07-24T11:28:23.012Z,77.07
2017-07-24T11:30:51.036Z,71.10
2017-07-24T11:33:19.068Z,84.37
2017-07-24T11:35:47.257Z,78.53
2017-07-24T11:38:15.268Z,89.03
2017-07-24T11:40:43.302Z,68.23
2017-07-24T11:43:11.584Z,91.80
2017-07-24T11:45:39.645Z,73.30
2017-07-24T11:48:07.732Z,87.27
2017-07-24T11:50:36.064Z,71.33
2017-07-24T11:53:04.150Z,80.10
2017-07-24T11:55:32.138Z,82.77
2017-07-24T11:58:00.316Z,81.73
2017-07-24T12:00:28.383Z,71.73
2017-07-24T12:02:56.448Z,89.47
2017-07-24T12:18:22.565Z,79.70
2017-07-24T12:20:50.672Z,73.27
2017-07-24T12:23:18.747Z,79.67
2017-07-24T12:25:46.908Z,76.60
2017-07-24T12:28:14.978Z,75.73
2017-07-24T12:30:43.178Z,76.33
2017-07-24T12:33:11.366Z,70.00
2017-07-24T12:35:39.386Z,79.33
2017-07-24T12:38:07.413Z,91.90
2017-07-24T12:40:35.642Z,88.10
2017-07-24T12:43:03.714Z,72.60
2017-07-24T12:45:31.741Z,82.00
2017-07-24T12:47:59.944Z,75.70
2017-07-24T12:50:28.019Z,60.13
2017-07-24T12:52:56.248Z,72.20
2017-07-24T12:55:24.433Z,77.47
2017-07-24T12:57:52.472Z,92.73
2017-07-24T13:00:20.516Z,87.07
2017-07-24T13:02:48.688Z,63.33
2017-07-24T13:05:16.738Z,67.30
2017-07-24T13:07:44.734Z,59.17
2017-07-24T13:10:12.893Z,72.60
2017-07-24T13:12:40.921Z,63.80
2017-07-24T13:15:09.000Z,65.50
2017-07-24T13:17:37.193Z,76.80
2017-07-24T13:20:05.282Z,73.47
2017-07-24T13:22:33.384Z,50.40
2017-07-24T13:25:01.613Z,66.30
2017-07-24T13:27:30.490Z,68.30
2017-07-24T13:29:58.569Z,61.53
2017-07-24T13:32:26.735Z,54.40
2017-07-24T13:34:54.817Z,68.77
2017-07-24T13:37:22.889Z,63.20
2017-07-24T13:39:51.040Z,73.33
2017-07-24T13:42:19.061Z,58.50
2017-07-24T13:44:47.132Z,66.27
2017-07-24T13:47:15.292Z,65.30
2017-07-24T13:49:43.371Z,77.40
2017-07-24T13:52:11.458Z,63.23
2017-07-24T13:54:39.706Z,69.93
2017-07-24T13:57:07.776Z,65.63
2017-07-24T13:59:35.852Z,56.37
2017-07-24T14:02:04.074Z,75.10
2017-07-24T14:04:32.147Z,65.57
2017-07-24T14:07:00.184Z,79.30
2017-07-24T14:09:28.306Z,53.70
2017-07-24T14:11:56.335Z,64.67
2017-07-24T14:14:24.362Z,64.03
2017-07-24T14:16:52.523Z,61.60
2017-07-24T14:19:20.549Z,65.47
2017-07-24T14:21:48.613Z,71.60
2017-07-24T14:24:16.796Z,62.47
2017-07-24T14:26:44.876Z,70.57
2017-07-24T14:29:12.938Z,61.03
2017-07-24T14:31:41.209Z,64.13
2017-07-24T14:34:09.218Z,65.67
2017-07-24T14:36:37.256Z,57.20
2017-07-24T14:39:05.645Z,56.77
2017-07-24T14:41:33.712Z,75.20
2017-07-24T14:44:01.754Z,58.33
2017-07-24T14:46:29.952Z,72.40
2017-07-24T14:48:57.973Z,74.40
2017-07-24T14:51:26.065Z,69.13
2017-07-24T14:53:54.247Z,72.37
2017-07-24T14:56:22.436Z,71.10
2017-07-24T14:58:50.568Z,71.20
2017-07-24T15:01:18.732Z,73.10
2017-07-24T15:03:46.818Z,65.53
2017-07-24T15:06:14.900Z,62.20
2017-07-24T15:08:43.105Z,66.53
2017-07-24T15:11:11.223Z,61.37
2017-07-24T15:13:39.264Z,58.40
2017-07-24T15:16:07.482Z,61.83
2017-07-24T15:18:35.510Z,61.40
2017-07-24T15:21:03.537Z,70.87
2017-07-24T15:23:31.709Z,66.03
2017-07-24T15:25:59.730Z,60.33
2017-07-24T15:28:27.798Z,69.53
2017-07-24T15:30:55.992Z,74.17
2017-07-24T15:33:24.041Z,57.70
2017-07-24T15:35:52.124Z,69.10
2017-07-24T15:38:20.309Z,62.83
2017-07-24T15:40:48.376Z,64.70
2017-07-24T15:43:16.420Z,57.60
2017-07-24T15:45:44.610Z,69.60
2017-07-24T15:48:12.648Z,78.03
2017-07-24T15:50:40.748Z,65.63
2017-07-24T15:53:08.916Z,62.60
2017-07-24T15:55:36.964Z,74.17
2017-07-24T15:58:05.166Z,63.80
2017-07-24T16:00:33.338Z,68.57
2017-07-24T16:03:01.403Z,62.50
2017-07-24T16:05:29.459Z,65.47
2017-07-24T16:07:57.613Z,75.30
2017-07-24T16:10:25.644Z,66.57
2017-07-24T16:12:53.764Z,58.87
2017-07-24T16:15:21.951Z,63.00
2017-07-24T16:17:50.044Z,73.03
2017-07-24T16:20:18.096Z,52.33
2017-07-24T16:22:46.291Z,59.20
2017-07-24T16:25:14.354Z,60.20
2017-07-24T16:27:42.384Z,60.23
2017-07-24T16:30:10.547Z,66.83
2017-07-24T16:32:38.610Z,70.43
2017-07-24T16:35:06.716Z,64.00
2017-07-24T16:37:34.944Z,68.93
2017-07-24T16:40:03.030Z,63.80
2017-07-24T16:42:31.140Z,65.17
2017-07-24T16:44:59.312Z,59.37
2017-07-24T16:47:27.340Z,72.03
2017-07-24T16:49:55.354Z,65.87
2017-07-24T16:52:23.541Z,69.17
2017-07-24T16:54:51.573Z,68.00
2017-07-24T16:57:19.652Z,58.17
2017-07-24T16:59:47.909Z,63.23
2017-07-24T17:02:15.996Z,61.30
2017-07-24T17:04:43.995Z,62.40
2017-07-24T17:07:12.250Z,67.00
2017-07-24T17:09:40.310Z,61.70
2017-07-24T17:12:08.337Z,62.23
2017-07-24T17:14:36.518Z,73.77
2017-07-24T17:17:04.582Z,78.27
2017-07-24T17:19:32.635Z,78.47
2017-07-24T17:22:00.786Z,64.43
2017-07-24T17:24:28.904Z,85.27
2017-07-24T17:26:56.953Z,67.73
2017-07-24T17:29:25.089Z,77.87
2017-07-24T17:31:53.141Z,79.57
2017-07-24T17:34:21.161Z,82.47
2017-07-24T17:36:49.343Z,72.73
2017-07-24T17:39:17.400Z,74.87
2017-07-24T17:41:45.472Z,91.60
2017-07-24T17:44:13.688Z,86.93
2017-07-24T17:46:41.753Z,77.33
2017-07-24T17:49:09.850Z,78.53
2017-07-24T17:51:38.000Z,71.50
2017-07-24T17:54:06.080Z,65.57
2017-07-24T17:56:34.143Z,70.23
2017-07-24T17:59:02.383Z,75.23
2017-07-24T18:01:30.599Z,77.23
2017-07-24T18:03:58.711Z,95.20
2017-07-24T18:06:26.898Z,70.53
2017-07-24T18:08:54.961Z,75.80
2017-07-24T18:11:23.039Z,64.90
2017-07-24T18:13:51.292Z,84.07
2017-07-24T18:16:19.332Z,92.07
2017-07-24T18:18:47.440Z,70.10
2017-07-24T18:21:15.652Z,70.20
2017-07-24T18:23:43.755Z,69.60
2017-07-24T18:26:11.862Z,83.57
2017-07-24T18:28:39.988Z,74.80
2017-07-24T18:31:08.060Z,78.93
2017-07-24T18:33:36.128Z,86.80
2017-07-24T18:36:04.325Z,71.67
2017-07-24T18:38:32.342Z,85.27
2017-07-24T18:41:00.412Z,77.53
2017-07-24T18:43:28.579Z,78.27
2017-07-24T18:45:56.648Z,78.27
2017-07-24T18:48:24.743Z,71.73
2017-07-24T18:50:52.972Z,93.40
2017-07-24T18:53:20.998Z,104.10
2017-07-24T18:55:49.062Z,92.77
2017-07-24T18:58:17.177Z,79.33
2017-07-24T19:00:45.174Z,75.73
2017-07-24T19:03:13.358Z,63.90
2017-07-24T19:05:41.515Z,80.30
2017-07-24T19:08:09.579Z,67.73
2017-07-24T19:10:37.633Z,74.33
2017-07-24T19:13:05.815Z,93.60
2017-07-24T19:15:33.840Z,88.20
2017-07-24T19:18:01.898Z,74.83
2017-07-24T19:20:30.096Z,68.90
2017-07-24T19:22:58.151Z,72.00
2017-07-24T19:25:26.201Z,81.47
2017-07-24T19:27:54.397Z,83.57
2017-07-24T19:30:22.439Z,82.50
2017-07-24T19:32:50.550Z,82.20
2017-07-24T19:35:18.756Z,80.30
2017-07-24T19:37:46.790Z,77.30
2017-07-24T19:40:14.848Z,102.63
2017-07-24T19:42:43.052Z,75.47
2017-07-24T19:45:11.089Z,90.63
2017-07-24T19:47:39.082Z,75.70
2017-07-24T19:50:07.217Z,91.60
2017-07-24T19:52:35.299Z,74.53
2017-07-24T19:55:03.321Z,95.13
2017-07-24T19:57:31.516Z,83.23
2017-07-24T19:59:59.600Z,74.53
2017-07-24T20:02:27.619Z,78.67
2017-07-24T20:04:55.968Z,75.67
2017-07-24T20:07:23.966Z,73.80
2017-07-24T20:09:52.013Z,80.23
2017-07-24T20:12:20.190Z,77.10
2017-07-24T20:14:48.289Z,68.07
2017-07-24T20:17:16.347Z,79.40
2017-07-24T20:19:44.561Z,82.13
2017-07-24T20:22:12.595Z,83.53
2017-07-24T20:24:40.594Z,85.03
2017-07-24T20:27:08.771Z,79.40
2017-07-24T20:29:37.182Z,80.60
2017-07-24T20:32:05.238Z,91.33
2017-07-24T20:34:33.443Z,98.83
2017-07-24T20:37:01.475Z,80.80
2017-07-24T20:39:29.568Z,87.30
2017-07-24T20:41:57.730Z,97.30
2017-07-24T20:44:25.808Z,99.03
2017-07-24T20:46:53.880Z,97.63
2017-07-24T20:49:22.062Z,102.50
2017-07-24T20:51:50.069Z,87.43
2017-07-24T20:54:18.088Z,101.30
2017-07-24T20:56:46.262Z,90.13
2017-07-24T20:59:14.303Z,92.77
2017-07-24T21:01:42.344Z,90.53
2017-07-24T21:04:10.516Z,98.67
2017-07-24T21:06:38.744Z,91.40
2017-07-24T21:09:06.844Z,93.53
2017-07-24T21:11:35.012Z,93.97
2017-07-24T21:14:03.100Z,83.43
2017-07-24T21:16:31.204Z,81.80
2017-07-24T21:18:59.423Z,92.27
2017-07-24T21:21:27.507Z,77.70
2017-07-24T21:23:55.529Z,82.30
2017-07-24T21:26:23.727Z,75.30
2017-07-24T21:28:51.810Z,81.10
2017-07-24T21:31:19.864Z,69.33
2017-07-24T21:33:48.075Z,92.57
2017-07-24T21:36:16.246Z,91.07
2017-07-24T21:38:44.319Z,99.17
2017-07-24T21:41:12.489Z,94.70
2017-07-24T21:43:40.560Z,100.77
2017-07-24T21:46:08.585Z,122.17
2017-07-24T21:48:36.714Z,117.20
2017-07-24T21:51:04.752Z,125.47
2017-07-24T21:53:32.832Z,136.40
2017-07-24T21:56:01.013Z,139.20
2017-07-24T21:58:29.036Z,125.07
2017-07-24T22:00:57.106Z,128.57
2017-07-24T22:03:25.320Z,119.67
2017-07-24T22:05:53.346Z,145.60
2017-07-24T22:08:21.621Z,157.87
2017-07-24T22:10:49.823Z,132.93
2017-07-24T22:13:17.878Z,148.97
2017-07-24T22:15:45.875Z,146.43
2017-07-24T22:18:14.046Z,154.77
2017-07-24T22:20:42.115Z,133.33
2017-07-24T22:23:10.142Z,114.97
2017-07-24T22:25:38.281Z,158.37
2017-07-24T22:28:06.436Z,153.73
2017-07-24T22:30:34.514Z,123.60
2017-07-24T22:33:02.694Z,125.13
2017-07-24T22:35:30.907Z,122.60
2017-07-24T22:37:59.004Z,122.83
2017-07-24T22:40:27.186Z,112.50
2017-07-24T22:42:55.214Z,91.53
2017-07-24T22:45:23.369Z,93.90
2017-07-24T22:47:51.564Z,85.30
2017-07-24T22:50:19.578Z,85.13
2017-07-24T22:52:47.644Z,86.73
2017-07-24T22:55:15.831Z,79.10
2017-07-24T22:57:43.893Z,102.87
2017-07-24T23:00:11.905Z,84.87
2017-07-24T23:02:40.099Z,84.63
2017-07-24T23:05:08.190Z,87.93
2017-07-24T23:07:36.268Z,82.67
2017-07-24T23:10:04.583Z,78.37
2017-07-24T23:12:32.600Z,70.93
2017-07-24T23:15:00.629Z,84.50
2017-07-24T23:17:28.818Z,79.97
2017-07-24T23:19:56.847Z,80.97
2017-07-24T23:22:24.931Z,70.93
2017-07-24T23:24:53.118Z,92.60
2017-07-24T23:27:21.157Z,85.57
2017-07-24T23:29:49.216Z,77.50
2017-07-24T23:32:17.438Z,71.77
2017-07-24T23:34:45.459Z,81.60
2017-07-24T23:37:13.471Z,74.30
2017-07-24T23:39:41.644Z,87.27
2017-07-24T23:42:09.730Z,92.60
2017-07-24T23:44:37.774Z,83.60
2017-07-24T23:47:05.968Z,91.40
2017-07-24T23:49:33.995Z,96.17
2017-07-24T23:52:02.027Z,85.00
2017-07-24T23:54:30.171Z,91.67
2017-07-24T23:56:58.198Z,87.97
2017-07-24T23:59:26.226Z,85.53
